sensor_id;sensor_type;location;lat;lon;timestamp;P1;durP1;ratioP1;P2;durP2;ratioP2
16845;SDS011;8539;53.188;8.696;2023-10-08T01:16:50;4.95;;;2.38;;
16845;SDS011;8539;53.188;8.696;2023-10-08T01:19:20;3.35;;;2.28;;
16845;SDS011;8539;53.188;8.696;2023-10-08T01:21:46;6.50;;;2.58;;
16845;SDS011;8539;53.188;8.696;2023-10-08T01:24:12;6.15;;;2.53;;
16845;SDS011;8539;53.188;8.696;2023-10-08T01:26:43;6.40;;;2.35;;
16845;SDS011;8539;53.188;8.696;2023-10-08T01:29:11;4.80;;;2.50;;
16845;SDS011;8539;53.188;8.696;2023-10-08T01:31:47;6.00;;;2.85;;
16845;SDS011;8539;53.188;8.696;2023-10-08T01:34:18;6.93;;;2.75;;
16845;SDS011;8539;53.188;8.696;2023-10-08T01:36:52;11.32;;;3.58;;
16845;SDS011;8539;53.188;8.696;2023-10-08T01:39:18;4.00;;;3.28;;
16845;SDS011;8539;53.188;8.696;2023-10-08T01:41:45;8.02;;;3.20;;
16845;SDS011;8539;53.188;8.696;2023-10-08T01:44:16;6.00;;;3.35;;
16845;SDS011;8539;53.188;8.696;2023-10-08T01:46:43;8.85;;;3.40;;
16845;SDS011;8539;53.188;8.696;2023-10-08T01:49:10;5.70;;;3.63;;
16845;SDS011;8539;53.188;8.696;2023-10-08T01:51:40;9.13;;;3.90;;
16845;SDS011;8539;53.188;8.696;2023-10-08T01:54:12;9.32;;;3.72;;
16845;SDS011;8539;53.188;8.696;2023-10-08T01:56:44;4.03;;;3.53;;
16845;SDS011;8539;53.188;8.696;2023-10-08T01:59:11;9.65;;;4.90;;
16845;SDS011;8539;53.188;8.696;2023-10-08T02:01:43;6.72;;;3.90;;
16845;SDS011;8539;53.188;8.696;2023-10-08T02:04:10;5.88;;;3.22;;
16845;SDS011;8539;53.188;8.696;2023-10-08T02:06:38;6.68;;;3.90;;
16845;SDS011;8539;53.188;8.696;2023-10-08T02:09:07;6.65;;;3.38;;
16845;SDS011;8539;53.188;8.696;2023-10-08T02:11:43;5.28;;;3.55;;
16845;SDS011;8539;53.188;8.696;2023-10-08T02:14:10;6.97;;;3.75;;
16845;SDS011;8539;53.188;8.696;2023-10-08T02:16:36;9.52;;;4.68;;
16845;SDS011;8539;53.188;8.696;2023-10-08T02:19:03;7.25;;;3.88;;
16845;SDS011;8539;53.188;8.696;2023-10-08T02:21:29;8.05;;;3.88;;
16845;SDS011;8539;53.188;8.696;2023-10-08T02:23:56;7.22;;;3.85;;
16845;SDS011;8539;53.188;8.696;2023-10-08T02:26:22;8.95;;;4.70;;
16845;SDS011;8539;53.188;8.696;2023-10-08T02:28:49;9.38;;;4.25;;
16845;SDS011;8539;53.188;8.696;2023-10-08T02:31:17;6.55;;;3.72;;
16845;SDS011;8539;53.188;8.696;2023-10-08T02:33:43;8.57;;;3.70;;
16845;SDS011;8539;53.188;8.696;2023-10-08T02:36:09;11.15;;;4.72;;
16845;SDS011;8539;53.188;8.696;2023-10-08T02:38:35;7.65;;;4.22;;
16845;SDS011;8539;53.188;8.696;2023-10-08T02:41:03;13.38;;;5.35;;
16845;SDS011;8539;53.188;8.696;2023-10-08T02:43:32;7.63;;;4.45;;
16845;SDS011;8539;53.188;8.696;2023-10-08T02:46:02;12.50;;;4.32;;
16845;SDS011;8539;53.188;8.696;2023-10-08T02:48:33;6.70;;;3.78;;
16845;SDS011;8539;53.188;8.696;2023-10-08T02:51:00;7.35;;;3.47;;
16845;SDS011;8539;53.188;8.696;2023-10-08T02:53:39;5.13;;;4.07;;
16845;SDS011;8539;53.188;8.696;2023-10-08T02:56:08;11.02;;;4.30;;
16845;SDS011;8539;53.188;8.696;2023-10-08T02:58:39;7.25;;;4.47;;
16845;SDS011;8539;53.188;8.696;2023-10-08T03:01:06;7.93;;;5.07;;
16845;SDS011;8539;53.188;8.696;2023-10-08T03:03:41;8.77;;;4.95;;
16845;SDS011;8539;53.188;8.696;2023-10-08T03:06:07;12.10;;;5.82;;
16845;SDS011;8539;53.188;8.696;2023-10-08T03:08:37;15.18;;;7.22;;
16845;SDS011;8539;53.188;8.696;2023-10-08T03:11:10;9.50;;;6.07;;
16845;SDS011;8539;53.188;8.696;2023-10-08T03:13:43;13.35;;;8.40;;
16845;SDS011;8539;53.188;8.696;2023-10-08T03:16:17;9.27;;;6.80;;
16845;SDS011;8539;53.188;8.696;2023-10-08T03:18:47;11.68;;;7.30;;
16845;SDS011;8539;53.188;8.696;2023-10-08T03:21:15;15.18;;;7.55;;
16845;SDS011;8539;53.188;8.696;2023-10-08T03:24:07;16.10;;;7.32;;
16845;SDS011;8539;53.188;8.696;2023-10-08T03:26:55;13.20;;;7.70;;
16845;SDS011;8539;53.188;8.696;2023-10-08T03:29:34;15.80;;;8.73;;
16845;SDS011;8539;53.188;8.696;2023-10-08T03:32:11;12.00;;;7.50;;
16845;SDS011;8539;53.188;8.696;2023-10-08T03:34:47;13.45;;;7.32;;
16845;SDS011;8539;53.188;8.696;2023-10-08T03:39:47;16.25;;;9.13;;
16845;SDS011;8539;53.188;8.696;2023-10-08T03:42:23;10.35;;;7.55;;
16845;SDS011;8539;53.188;8.696;2023-10-08T03:44:50;11.45;;;7.45;;
16845;SDS011;8539;53.188;8.696;2023-10-08T03:47:18;13.55;;;8.43;;
16845;SDS011;8539;53.188;8.696;2023-10-08T03:49:45;13.68;;;7.65;;
16845;SDS011;8539;53.188;8.696;2023-10-08T03:52:11;13.25;;;9.50;;
16845;SDS011;8539;53.188;8.696;2023-10-08T03:54:40;11.40;;;7.18;;
16845;SDS011;8539;53.188;8.696;2023-10-08T03:57:30;13.30;;;7.95;;
16845;SDS011;8539;53.188;8.696;2023-10-08T04:00:12;13.60;;;7.90;;
16845;SDS011;8539;53.188;8.696;2023-10-08T04:05:23;13.57;;;8.25;;
16845;SDS011;8539;53.188;8.696;2023-10-08T04:07:53;13.68;;;8.63;;
16845;SDS011;8539;53.188;8.696;2023-10-08T04:10:28;15.60;;;8.38;;
16845;SDS011;8539;53.188;8.696;2023-10-08T04:13:07;16.25;;;8.05;;
16845;SDS011;8539;53.188;8.696;2023-10-08T04:15:37;14.65;;;9.00;;
16845;SDS011;8539;53.188;8.696;2023-10-08T04:18:07;17.60;;;9.07;;
16845;SDS011;8539;53.188;8.696;2023-10-08T04:20:34;14.13;;;8.68;;
16845;SDS011;8539;53.188;8.696;2023-10-08T04:23:03;16.63;;;8.63;;
16845;SDS011;8539;53.188;8.696;2023-10-08T04:25:32;13.48;;;8.88;;
16845;SDS011;8539;53.188;8.696;2023-10-08T04:27:59;15.27;;;9.30;;
16845;SDS011;8539;53.188;8.696;2023-10-08T04:30:26;16.23;;;9.60;;
16845;SDS011;8539;53.188;8.696;2023-10-08T04:35:38;15.00;;;9.50;;
16845;SDS011;8539;53.188;8.696;2023-10-08T04:38:20;19.20;;;10.27;;
16845;SDS011;8539;53.188;8.696;2023-10-08T04:40:51;23.05;;;10.82;;
16845;SDS011;8539;53.188;8.696;2023-10-08T04:43:18;20.95;;;10.95;;
16845;SDS011;8539;53.188;8.696;2023-10-08T04:45:53;17.45;;;10.98;;
16845;SDS011;8539;53.188;8.696;2023-10-08T04:48:25;20.95;;;10.23;;
16845;SDS011;8539;53.188;8.696;2023-10-08T04:50:55;16.63;;;11.55;;
16845;SDS011;8539;53.188;8.696;2023-10-08T04:53:27;12.13;;;9.05;;
16845;SDS011;8539;53.188;8.696;2023-10-08T04:56:02;19.80;;;10.60;;
16845;SDS011;8539;53.188;8.696;2023-10-08T04:58:39;17.92;;;11.00;;
16845;SDS011;8539;53.188;8.696;2023-10-08T05:01:06;15.43;;;10.30;;
16845;SDS011;8539;53.188;8.696;2023-10-08T05:03:45;16.73;;;9.13;;
16845;SDS011;8539;53.188;8.696;2023-10-08T05:06:36;15.13;;;10.60;;
16845;SDS011;8539;53.188;8.696;2023-10-08T05:09:12;19.33;;;11.07;;
16845;SDS011;8539;53.188;8.696;2023-10-08T05:11:45;20.20;;;11.75;;
16845;SDS011;8539;53.188;8.696;2023-10-08T05:14:32;19.52;;;10.95;;
16845;SDS011;8539;53.188;8.696;2023-10-08T05:17:02;20.27;;;11.27;;
16845;SDS011;8539;53.188;8.696;2023-10-08T05:19:37;20.13;;;11.68;;
16845;SDS011;8539;53.188;8.696;2023-10-08T05:22:07;21.52;;;12.00;;
16845;SDS011;8539;53.188;8.696;2023-10-08T05:24:52;17.90;;;12.27;;
16845;SDS011;8539;53.188;8.696;2023-10-08T05:27:52;19.95;;;10.57;;
16845;SDS011;8539;53.188;8.696;2023-10-08T05:30:26;17.95;;;11.13;;
16845;SDS011;8539;53.188;8.696;2023-10-08T05:33:19;15.77;;;8.95;;
16845;SDS011;8539;53.188;8.696;2023-10-08T05:35:51;21.83;;;10.00;;
16845;SDS011;8539;53.188;8.696;2023-10-08T05:38:36;18.98;;;10.98;;
16845;SDS011;8539;53.188;8.696;2023-10-08T05:41:02;20.42;;;10.35;;
16845;SDS011;8539;53.188;8.696;2023-10-08T05:43:30;19.35;;;9.55;;
16845;SDS011;8539;53.188;8.696;2023-10-08T05:46:21;13.35;;;8.52;;
16845;SDS011;8539;53.188;8.696;2023-10-08T05:48:50;17.50;;;9.38;;
16845;SDS011;8539;53.188;8.696;2023-10-08T05:51:34;14.10;;;7.85;;
16845;SDS011;8539;53.188;8.696;2023-10-08T05:54:21;18.73;;;8.50;;
16845;SDS011;8539;53.188;8.696;2023-10-08T05:57:01;13.85;;;8.05;;
16845;SDS011;8539;53.188;8.696;2023-10-08T05:59:50;14.40;;;8.27;;
16845;SDS011;8539;53.188;8.696;2023-10-08T06:02:26;10.65;;;7.22;;
16845;SDS011;8539;53.188;8.696;2023-10-08T06:05:03;18.52;;;7.63;;
16845;SDS011;8539;53.188;8.696;2023-10-08T06:07:39;10.57;;;6.93;;
16845;SDS011;8539;53.188;8.696;2023-10-08T06:10:24;12.27;;;7.00;;
16845;SDS011;8539;53.188;8.696;2023-10-08T06:13:12;11.38;;;6.38;;
16845;SDS011;8539;53.188;8.696;2023-10-08T06:15:52;10.73;;;6.43;;
16845;SDS011;8539;53.188;8.696;2023-10-08T06:18:27;15.02;;;6.68;;
16845;SDS011;8539;53.188;8.696;2023-10-08T06:20:56;10.07;;;5.38;;
16845;SDS011;8539;53.188;8.696;2023-10-08T06:23:27;11.43;;;6.63;;
16845;SDS011;8539;53.188;8.696;2023-10-08T06:26:01;11.45;;;5.90;;
16845;SDS011;8539;53.188;8.696;2023-10-08T06:28:40;9.15;;;5.43;;
16845;SDS011;8539;53.188;8.696;2023-10-08T06:31:08;9.18;;;5.22;;
16845;SDS011;8539;53.188;8.696;2023-10-08T06:33:42;17.27;;;5.30;;
16845;SDS011;8539;53.188;8.696;2023-10-08T06:36:10;9.32;;;5.68;;
16845;SDS011;8539;53.188;8.696;2023-10-08T06:38:37;10.27;;;4.20;;
16845;SDS011;8539;53.188;8.696;2023-10-08T06:41:05;7.55;;;3.90;;
16845;SDS011;8539;53.188;8.696;2023-10-08T06:43:40;7.57;;;3.72;;
16845;SDS011;8539;53.188;8.696;2023-10-08T06:46:28;5.95;;;3.30;;
16845;SDS011;8539;53.188;8.696;2023-10-08T06:49:06;9.68;;;3.85;;
16845;SDS011;8539;53.188;8.696;2023-10-08T06:51:38;9.00;;;2.80;;
16845;SDS011;8539;53.188;8.696;2023-10-08T06:54:04;10.40;;;3.97;;
16845;SDS011;8539;53.188;8.696;2023-10-08T06:56:35;7.20;;;3.78;;
16845;SDS011;8539;53.188;8.696;2023-10-08T06:59:02;8.43;;;3.47;;
16845;SDS011;8539;53.188;8.696;2023-10-08T07:01:28;9.13;;;3.42;;
16845;SDS011;8539;53.188;8.696;2023-10-08T07:04:04;5.15;;;2.75;;
16845;SDS011;8539;53.188;8.696;2023-10-08T07:06:32;9.77;;;3.20;;
16845;SDS011;8539;53.188;8.696;2023-10-08T07:08:59;9.93;;;3.05;;
16845;SDS011;8539;53.188;8.696;2023-10-08T07:11:33;7.22;;;2.42;;
16845;SDS011;8539;53.188;8.696;2023-10-08T07:14:01;10.75;;;3.92;;
16845;SDS011;8539;53.188;8.696;2023-10-08T07:16:29;6.53;;;2.05;;
16845;SDS011;8539;53.188;8.696;2023-10-08T07:18:56;9.43;;;2.40;;
16845;SDS011;8539;53.188;8.696;2023-10-08T07:21:28;8.50;;;2.70;;
16845;SDS011;8539;53.188;8.696;2023-10-08T07:23:58;3.97;;;2.35;;
16845;SDS011;8539;53.188;8.696;2023-10-08T07:26:26;8.75;;;2.65;;
16845;SDS011;8539;53.188;8.696;2023-10-08T07:29:01;6.55;;;2.35;;
16845;SDS011;8539;53.188;8.696;2023-10-08T07:31:35;5.93;;;2.83;;
16845;SDS011;8539;53.188;8.696;2023-10-08T07:34:03;5.25;;;1.70;;
16845;SDS011;8539;53.188;8.696;2023-10-08T07:36:47;6.90;;;1.80;;
16845;SDS011;8539;53.188;8.696;2023-10-08T07:39:17;9.68;;;2.47;;
16845;SDS011;8539;53.188;8.696;2023-10-08T07:44:30;3.65;;;2.05;;
16845;SDS011;8539;53.188;8.696;2023-10-08T07:46:56;8.25;;;2.10;;
16845;SDS011;8539;53.188;8.696;2023-10-08T07:49:23;6.65;;;1.67;;
16845;SDS011;8539;53.188;8.696;2023-10-08T07:51:55;6.45;;;2.22;;
16845;SDS011;8539;53.188;8.696;2023-10-08T07:54:24;8.35;;;2.10;;
16845;SDS011;8539;53.188;8.696;2023-10-08T07:56:54;4.05;;;1.80;;
16845;SDS011;8539;53.188;8.696;2023-10-08T07:59:34;7.20;;;2.60;;
16845;SDS011;8539;53.188;8.696;2023-10-08T08:02:05;6.88;;;1.75;;
16845;SDS011;8539;53.188;8.696;2023-10-08T08:04:36;6.22;;;1.80;;
16845;SDS011;8539;53.188;8.696;2023-10-08T08:07:05;8.85;;;2.45;;
16845;SDS011;8539;53.188;8.696;2023-10-08T08:09:32;6.88;;;1.75;;
16845;SDS011;8539;53.188;8.696;2023-10-08T08:12:06;7.32;;;1.90;;
16845;SDS011;8539;53.188;8.696;2023-10-08T08:14:39;6.40;;;1.70;;
16845;SDS011;8539;53.188;8.696;2023-10-08T08:17:07;4.03;;;1.60;;
16845;SDS011;8539;53.188;8.696;2023-10-08T08:19:40;12.43;;;2.13;;
16845;SDS011;8539;53.188;8.696;2023-10-08T08:22:07;6.07;;;1.70;;
16845;SDS011;8539;53.188;8.696;2023-10-08T08:24:33;5.32;;;1.70;;
16845;SDS011;8539;53.188;8.696;2023-10-08T08:27:02;8.48;;;1.92;;
16845;SDS011;8539;53.188;8.696;2023-10-08T08:29:37;5.20;;;1.15;;
16845;SDS011;8539;53.188;8.696;2023-10-08T08:32:10;11.35;;;1.73;;
16845;SDS011;8539;53.188;8.696;2023-10-08T08:34:41;7.63;;;1.73;;
16845;SDS011;8539;53.188;8.696;2023-10-08T08:37:11;5.95;;;1.60;;
16845;SDS011;8539;53.188;8.696;2023-10-08T08:39:37;13.73;;;1.75;;
16845;SDS011;8539;53.188;8.696;2023-10-08T08:42:04;5.40;;;1.63;;
16845;SDS011;8539;53.188;8.696;2023-10-08T08:44:30;7.68;;;2.15;;
16845;SDS011;8539;53.188;8.696;2023-10-08T08:46:58;12.70;;;2.63;;
16845;SDS011;8539;53.188;8.696;2023-10-08T08:49:33;4.35;;;1.25;;
16845;SDS011;8539;53.188;8.696;2023-10-08T08:52:00;3.50;;;1.10;;
16845;SDS011;8539;53.188;8.696;2023-10-08T08:54:27;9.32;;;2.38;;
16845;SDS011;8539;53.188;8.696;2023-10-08T08:56:56;3.60;;;1.38;;
16845;SDS011;8539;53.188;8.696;2023-10-08T08:59:27;8.70;;;1.90;;
16845;SDS011;8539;53.188;8.696;2023-10-08T09:01:58;6.53;;;2.15;;
16845;SDS011;8539;53.188;8.696;2023-10-08T09:04:29;3.78;;;1.27;;
16845;SDS011;8539;53.188;8.696;2023-10-08T09:06:56;6.68;;;1.83;;
16845;SDS011;8539;53.188;8.696;2023-10-08T09:09:25;6.75;;;1.52;;
16845;SDS011;8539;53.188;8.696;2023-10-08T09:11:57;5.68;;;1.15;;
16845;SDS011;8539;53.188;8.696;2023-10-08T09:14:24;6.28;;;1.80;;
16845;SDS011;8539;53.188;8.696;2023-10-08T09:16:52;8.13;;;1.80;;
16845;SDS011;8539;53.188;8.696;2023-10-08T09:19:20;8.88;;;1.42;;
16845;SDS011;8539;53.188;8.696;2023-10-08T09:22:00;9.55;;;1.90;;
16845;SDS011;8539;53.188;8.696;2023-10-08T09:24:36;12.32;;;1.90;;
16845;SDS011;8539;53.188;8.696;2023-10-08T09:29:29;5.32;;;1.40;;
16845;SDS011;8539;53.188;8.696;2023-10-08T09:31:56;3.13;;;1.33;;
16845;SDS011;8539;53.188;8.696;2023-10-08T09:34:27;5.90;;;1.58;;
16845;SDS011;8539;53.188;8.696;2023-10-08T09:36:56;3.40;;;1.42;;
16845;SDS011;8539;53.188;8.696;2023-10-08T09:39:25;7.88;;;1.50;;
16845;SDS011;8539;53.188;8.696;2023-10-08T09:41:54;9.75;;;2.03;;
16845;SDS011;8539;53.188;8.696;2023-10-08T09:44:21;4.88;;;1.58;;
16845;SDS011;8539;53.188;8.696;2023-10-08T09:47:24;11.43;;;1.60;;
16845;SDS011;8539;53.188;8.696;2023-10-08T09:53:02;6.18;;;1.70;;
16845;SDS011;8539;53.188;8.696;2023-10-08T09:56:03;3.75;;;1.58;;
16845;SDS011;8539;53.188;8.696;2023-10-08T09:58:32;6.03;;;1.42;;
16845;SDS011;8539;53.188;8.696;2023-10-08T10:00:58;7.63;;;1.50;;
16845;SDS011;8539;53.188;8.696;2023-10-08T10:03:25;3.08;;;1.23;;
16845;SDS011;8539;53.188;8.696;2023-10-08T10:05:51;6.50;;;1.88;;
16845;SDS011;8539;53.188;8.696;2023-10-08T10:08:23;5.75;;;1.17;;
16845;SDS011;8539;53.188;8.696;2023-10-08T10:10:58;7.22;;;2.10;;
16845;SDS011;8539;53.188;8.696;2023-10-08T10:13:27;8.00;;;1.30;;
16845;SDS011;8539;53.188;8.696;2023-10-08T10:15:59;8.40;;;2.47;;
16845;SDS011;8539;53.188;8.696;2023-10-08T10:20:58;5.07;;;2.05;;
16845;SDS011;8539;53.188;8.696;2023-10-08T10:31:41;2.42;;;1.05;;
16845;SDS011;8539;53.188;8.696;2023-10-08T10:34:22;6.03;;;1.23;;
16845;SDS011;8539;53.188;8.696;2023-10-08T10:36:53;4.55;;;1.13;;
16845;SDS011;8539;53.188;8.696;2023-10-08T10:39:34;7.07;;;1.83;;
16845;SDS011;8539;53.188;8.696;2023-10-08T10:42:05;6.93;;;1.67;;
16845;SDS011;8539;53.188;8.696;2023-10-08T10:44:44;6.18;;;1.25;;
16845;SDS011;8539;53.188;8.696;2023-10-08T10:47:10;4.28;;;1.35;;
16845;SDS011;8539;53.188;8.696;2023-10-08T10:49:49;6.13;;;1.20;;
16845;SDS011;8539;53.188;8.696;2023-10-08T10:52:16;3.97;;;1.10;;
16845;SDS011;8539;53.188;8.696;2023-10-08T10:55:03;5.90;;;1.42;;
16845;SDS011;8539;53.188;8.696;2023-10-08T10:57:43;10.10;;;1.67;;
16845;SDS011;8539;53.188;8.696;2023-10-08T11:00:19;3.72;;;1.27;;
16845;SDS011;8539;53.188;8.696;2023-10-08T11:02:58;5.75;;;1.55;;
16845;SDS011;8539;53.188;8.696;2023-10-08T11:05:32;2.10;;;0.95;;
16845;SDS011;8539;53.188;8.696;2023-10-08T11:08:04;2.50;;;1.23;;
16845;SDS011;8539;53.188;8.696;2023-10-08T11:10:36;4.40;;;1.33;;
16845;SDS011;8539;53.188;8.696;2023-10-08T11:13:10;2.85;;;1.23;;
16845;SDS011;8539;53.188;8.696;2023-10-08T11:15:40;6.80;;;1.20;;
16845;SDS011;8539;53.188;8.696;2023-10-08T11:18:09;2.83;;;1.13;;
16845;SDS011;8539;53.188;8.696;2023-10-08T11:20:35;8.18;;;1.58;;
16845;SDS011;8539;53.188;8.696;2023-10-08T11:26:02;5.10;;;1.92;;
16845;SDS011;8539;53.188;8.696;2023-10-08T11:28:33;5.82;;;1.48;;
16845;SDS011;8539;53.188;8.696;2023-10-08T11:31:07;3.17;;;1.38;;
16845;SDS011;8539;53.188;8.696;2023-10-08T11:33:36;6.53;;;1.55;;
16845;SDS011;8539;53.188;8.696;2023-10-08T11:36:05;5.13;;;2.17;;
16845;SDS011;8539;53.188;8.696;2023-10-08T11:38:39;6.85;;;1.40;;
16845;SDS011;8539;53.188;8.696;2023-10-08T11:41:10;6.15;;;1.40;;
16845;SDS011;8539;53.188;8.696;2023-10-08T11:43:52;5.47;;;1.67;;
16845;SDS011;8539;53.188;8.696;2023-10-08T11:46:26;3.47;;;1.23;;
16845;SDS011;8539;53.188;8.696;2023-10-08T11:48:54;6.03;;;1.30;;
16845;SDS011;8539;53.188;8.696;2023-10-08T11:51:24;4.18;;;1.00;;
16845;SDS011;8539;53.188;8.696;2023-10-08T11:53:50;6.32;;;1.50;;
16845;SDS011;8539;53.188;8.696;2023-10-08T11:56:17;3.25;;;1.45;;
16845;SDS011;8539;53.188;8.696;2023-10-08T11:58:47;5.78;;;1.40;;
16845;SDS011;8539;53.188;8.696;2023-10-08T12:01:13;10.52;;;1.77;;
16845;SDS011;8539;53.188;8.696;2023-10-08T12:03:41;3.17;;;1.27;;
16845;SDS011;8539;53.188;8.696;2023-10-08T12:06:11;2.78;;;1.40;;
16845;SDS011;8539;53.188;8.696;2023-10-08T12:08:41;2.70;;;1.15;;
16845;SDS011;8539;53.188;8.696;2023-10-08T12:11:11;5.40;;;1.42;;
16845;SDS011;8539;53.188;8.696;2023-10-08T12:13:40;2.65;;;1.10;;
16845;SDS011;8539;53.188;8.696;2023-10-08T12:16:10;8.20;;;1.92;;
16845;SDS011;8539;53.188;8.696;2023-10-08T12:21:13;3.53;;;1.15;;
16845;SDS011;8539;53.188;8.696;2023-10-08T12:23:41;6.65;;;2.13;;
16845;SDS011;8539;53.188;8.696;2023-10-08T12:26:15;5.88;;;1.65;;
16845;SDS011;8539;53.188;8.696;2023-10-08T12:28:45;7.82;;;1.50;;
16845;SDS011;8539;53.188;8.696;2023-10-08T12:31:16;9.23;;;1.45;;
16845;SDS011;8539;53.188;8.696;2023-10-08T12:33:48;11.07;;;1.58;;
16845;SDS011;8539;53.188;8.696;2023-10-08T12:36:16;5.15;;;1.55;;
16845;SDS011;8539;53.188;8.696;2023-10-08T12:38:43;3.53;;;1.98;;
16845;SDS011;8539;53.188;8.696;2023-10-08T12:41:10;5.35;;;1.95;;
16845;SDS011;8539;53.188;8.696;2023-10-08T12:43:40;5.05;;;1.80;;
16845;SDS011;8539;53.188;8.696;2023-10-08T12:46:18;6.22;;;1.58;;
16845;SDS011;8539;53.188;8.696;2023-10-08T12:48:50;4.47;;;1.67;;
16845;SDS011;8539;53.188;8.696;2023-10-08T12:51:23;3.25;;;1.42;;
16845;SDS011;8539;53.188;8.696;2023-10-08T12:53:50;5.65;;;2.38;;
16845;SDS011;8539;53.188;8.696;2023-10-08T12:56:26;5.18;;;1.80;;
16845;SDS011;8539;53.188;8.696;2023-10-08T12:59:03;4.70;;;1.55;;
16845;SDS011;8539;53.188;8.696;2023-10-08T13:01:36;3.90;;;1.40;;
16845;SDS011;8539;53.188;8.696;2023-10-08T13:04:06;5.45;;;1.77;;
16845;SDS011;8539;53.188;8.696;2023-10-08T13:06:33;3.65;;;1.60;;
16845;SDS011;8539;53.188;8.696;2023-10-08T13:09:03;7.20;;;1.48;;
16845;SDS011;8539;53.188;8.696;2023-10-08T13:11:38;2.88;;;1.20;;
16845;SDS011;8539;53.188;8.696;2023-10-08T13:14:05;3.35;;;1.40;;
16845;SDS011;8539;53.188;8.696;2023-10-08T13:16:32;8.98;;;1.92;;
16845;SDS011;8539;53.188;8.696;2023-10-08T13:18:58;11.45;;;2.35;;
16845;SDS011;8539;53.188;8.696;2023-10-08T13:21:25;5.13;;;2.75;;
16845;SDS011;8539;53.188;8.696;2023-10-08T13:23:56;5.30;;;2.75;;
16845;SDS011;8539;53.188;8.696;2023-10-08T13:26:26;9.88;;;2.63;;
16845;SDS011;8539;53.188;8.696;2023-10-08T13:28:56;4.55;;;2.45;;
16845;SDS011;8539;53.188;8.696;2023-10-08T13:31:24;6.40;;;2.17;;
16845;SDS011;8539;53.188;8.696;2023-10-08T13:33:50;6.20;;;2.05;;
16845;SDS011;8539;53.188;8.696;2023-10-08T13:36:18;4.43;;;2.15;;
16845;SDS011;8539;53.188;8.696;2023-10-08T13:38:44;8.43;;;1.90;;
16845;SDS011;8539;53.188;8.696;2023-10-08T13:41:11;7.85;;;2.47;;
16845;SDS011;8539;53.188;8.696;2023-10-08T13:43:41;9.38;;;4.18;;
16845;SDS011;8539;53.188;8.696;2023-10-08T13:46:12;3.90;;;1.92;;
16845;SDS011;8539;53.188;8.696;2023-10-08T13:48:39;6.00;;;2.30;;
16845;SDS011;8539;53.188;8.696;2023-10-08T13:51:13;7.20;;;2.35;;
16845;SDS011;8539;53.188;8.696;2023-10-08T13:53:41;4.88;;;2.20;;
16845;SDS011;8539;53.188;8.696;2023-10-08T13:56:10;9.45;;;2.30;;
16845;SDS011;8539;53.188;8.696;2023-10-08T13:58:37;6.97;;;1.98;;
16845;SDS011;8539;53.188;8.696;2023-10-08T14:01:06;6.07;;;2.38;;
16845;SDS011;8539;53.188;8.696;2023-10-08T14:03:48;5.20;;;2.53;;
16845;SDS011;8539;53.188;8.696;2023-10-08T14:06:17;6.43;;;2.10;;
16845;SDS011;8539;53.188;8.696;2023-10-08T14:08:45;7.20;;;2.33;;
16845;SDS011;8539;53.188;8.696;2023-10-08T14:11:17;5.93;;;2.10;;
16845;SDS011;8539;53.188;8.696;2023-10-08T14:13:44;4.65;;;1.90;;
16845;SDS011;8539;53.188;8.696;2023-10-08T14:16:12;7.93;;;2.35;;
16845;SDS011;8539;53.188;8.696;2023-10-08T14:18:41;8.35;;;2.28;;
16845;SDS011;8539;53.188;8.696;2023-10-08T14:21:07;11.00;;;2.53;;
16845;SDS011;8539;53.188;8.696;2023-10-08T14:23:37;5.63;;;2.05;;
16845;SDS011;8539;53.188;8.696;2023-10-08T14:26:07;7.65;;;1.42;;
16845;SDS011;8539;53.188;8.696;2023-10-08T14:28:34;3.72;;;1.65;;
16845;SDS011;8539;53.188;8.696;2023-10-08T14:31:09;4.93;;;1.73;;
16845;SDS011;8539;53.188;8.696;2023-10-08T14:33:42;4.70;;;2.40;;
16845;SDS011;8539;53.188;8.696;2023-10-08T14:36:24;13.38;;;2.95;;
16845;SDS011;8539;53.188;8.696;2023-10-08T14:39:10;4.05;;;2.08;;
16845;SDS011;8539;53.188;8.696;2023-10-08T14:41:54;3.03;;;2.05;;
16845;SDS011;8539;53.188;8.696;2023-10-08T14:44:39;5.75;;;1.75;;
16845;SDS011;8539;53.188;8.696;2023-10-08T14:47:06;4.20;;;1.80;;
16845;SDS011;8539;53.188;8.696;2023-10-08T14:49:32;5.90;;;1.90;;
16845;SDS011;8539;53.188;8.696;2023-10-08T14:51:59;7.90;;;2.35;;
16845;SDS011;8539;53.188;8.696;2023-10-08T14:54:25;9.07;;;2.05;;
16845;SDS011;8539;53.188;8.696;2023-10-08T14:56:51;6.85;;;2.03;;
16845;SDS011;8539;53.188;8.696;2023-10-08T14:59:18;6.82;;;2.13;;
16845;SDS011;8539;53.188;8.696;2023-10-08T15:01:46;5.38;;;1.75;;
16845;SDS011;8539;53.188;8.696;2023-10-08T15:04:13;6.05;;;1.70;;
16845;SDS011;8539;53.188;8.696;2023-10-08T15:06:40;4.90;;;1.60;;
16845;SDS011;8539;53.188;8.696;2023-10-08T15:09:06;3.67;;;1.70;;
16845;SDS011;8539;53.188;8.696;2023-10-08T15:11:44;7.28;;;2.40;;
16845;SDS011;8539;53.188;8.696;2023-10-08T15:14:12;11.00;;;2.15;;
16845;SDS011;8539;53.188;8.696;2023-10-08T15:16:38;10.05;;;2.55;;
16845;SDS011;8539;53.188;8.696;2023-10-08T15:19:04;4.25;;;1.70;;
16845;SDS011;8539;53.188;8.696;2023-10-08T15:21:31;6.10;;;1.98;;
16845;SDS011;8539;53.188;8.696;2023-10-08T15:24:00;5.88;;;1.83;;
16845;SDS011;8539;53.188;8.696;2023-10-08T15:26:33;3.65;;;1.42;;
16845;SDS011;8539;53.188;8.696;2023-10-08T15:29:00;3.75;;;1.42;;
16845;SDS011;8539;53.188;8.696;2023-10-08T15:31:28;6.93;;;2.15;;
16845;SDS011;8539;53.188;8.696;2023-10-08T15:33:55;7.35;;;1.67;;
16845;SDS011;8539;53.188;8.696;2023-10-08T15:36:21;5.55;;;1.75;;
16845;SDS011;8539;53.188;8.696;2023-10-08T15:38:47;4.15;;;1.77;;
16845;SDS011;8539;53.188;8.696;2023-10-08T15:41:14;4.50;;;1.30;;
16845;SDS011;8539;53.188;8.696;2023-10-08T15:43:41;5.13;;;1.73;;
16845;SDS011;8539;53.188;8.696;2023-10-08T15:46:10;8.43;;;1.70;;
16845;SDS011;8539;53.188;8.696;2023-10-08T15:48:37;5.93;;;2.35;;
16845;SDS011;8539;53.188;8.696;2023-10-08T15:51:03;6.32;;;2.53;;
16845;SDS011;8539;53.188;8.696;2023-10-08T15:53:30;4.25;;;1.65;;
16845;SDS011;8539;53.188;8.696;2023-10-08T15:55:56;3.78;;;1.60;;
16845;SDS011;8539;53.188;8.696;2023-10-08T15:58:23;5.50;;;1.85;;
16845;SDS011;8539;53.188;8.696;2023-10-08T16:00:49;4.55;;;1.58;;
16845;SDS011;8539;53.188;8.696;2023-10-08T16:03:15;6.07;;;1.88;;
16845;SDS011;8539;53.188;8.696;2023-10-08T16:05:43;10.43;;;1.48;;
16845;SDS011;8539;53.188;8.696;2023-10-08T16:08:11;7.97;;;1.60;;
16845;SDS011;8539;53.188;8.696;2023-10-08T16:10:37;3.97;;;1.30;;
16845;SDS011;8539;53.188;8.696;2023-10-08T16:13:03;3.97;;;1.60;;
16845;SDS011;8539;53.188;8.696;2023-10-08T16:15:30;6.32;;;2.95;;
16845;SDS011;8539;53.188;8.696;2023-10-08T16:17:57;2.70;;;1.40;;
16845;SDS011;8539;53.188;8.696;2023-10-08T16:20:23;4.57;;;1.30;;
16845;SDS011;8539;53.188;8.696;2023-10-08T16:22:51;5.85;;;1.70;;
16845;SDS011;8539;53.188;8.696;2023-10-08T16:25:18;5.43;;;1.75;;
16845;SDS011;8539;53.188;8.696;2023-10-08T16:27:45;6.22;;;2.67;;
16845;SDS011;8539;53.188;8.696;2023-10-08T16:30:16;4.40;;;1.67;;
16845;SDS011;8539;53.188;8.696;2023-10-08T16:32:45;7.45;;;1.98;;
16845;SDS011;8539;53.188;8.696;2023-10-08T16:35:11;3.33;;;1.73;;
16845;SDS011;8539;53.188;8.696;2023-10-08T16:37:37;6.20;;;1.90;;
16845;SDS011;8539;53.188;8.696;2023-10-08T16:40:04;6.18;;;2.00;;
16845;SDS011;8539;53.188;8.696;2023-10-08T16:42:32;11.45;;;2.20;;
16845;SDS011;8539;53.188;8.696;2023-10-08T16:45:03;7.82;;;1.60;;
16845;SDS011;8539;53.188;8.696;2023-10-08T16:47:33;6.72;;;1.63;;
16845;SDS011;8539;53.188;8.696;2023-10-08T16:49:59;6.75;;;1.90;;
16845;SDS011;8539;53.188;8.696;2023-10-08T16:52:26;7.55;;;2.00;;
16845;SDS011;8539;53.188;8.696;2023-10-08T16:54:53;7.18;;;2.15;;
16845;SDS011;8539;53.188;8.696;2023-10-08T16:57:20;6.88;;;1.50;;
16845;SDS011;8539;53.188;8.696;2023-10-08T16:59:50;3.80;;;1.58;;
16845;SDS011;8539;53.188;8.696;2023-10-08T17:02:16;6.72;;;1.80;;
16845;SDS011;8539;53.188;8.696;2023-10-08T17:04:42;5.97;;;2.58;;
16845;SDS011;8539;53.188;8.696;2023-10-08T17:07:09;6.15;;;2.25;;
16845;SDS011;8539;53.188;8.696;2023-10-08T17:09:35;9.55;;;2.20;;